Time;durP1;ratioP1;P1;durP2;ratioP2;P2;SDS_P1;SDS_P2;PMS_P1;PMS_P2;Temp;Humidity;BMP_temperature;BMP_pressure;BME280_temperature;BME280_humidity;BME280_pressure;Samples;Min_cycle;Max_cycle;Signal;HPM_P1;HPM_P2
2022/08/27 00:01:39;;;;;;;16.43;6.23;;;;;;;20.37;90.07;100583.50;5092790;28;20236;-69
2022/08/27 00:04:05;;;;;;;8.67;6.03;;;;;;;20.35;90.36;100580.09;5090959;28;20241;-69
2022/08/27 00:06:32;;;;;;;9.67;5.90;;;;;;;20.34;90.32;100581.09;5085987;28;20201;-68
2022/08/27 00:08:58;;;;;;;10.27;5.73;;;;;;;20.32;90.60;100580.41;5083415;28;20233;-68
2022/08/27 00:11:25;;;;;;;13.77;7.00;;;;;;;20.31;90.66;100584.13;5089433;28;20217;-68
2022/08/27 00:13:55;;;;;;;15.03;6.80;;;;;;;20.29;90.98;100578.88;5091916;28;20263;-69
2022/08/27 00:16:23;;;;;;;12.70;6.47;;;;;;;20.29;90.94;100578.88;5085914;28;20662;-68
2022/08/27 00:18:50;;;;;;;11.87;6.30;;;;;;;20.26;91.00;100584.59;5086645;28;20233;-69
2022/08/27 00:21:17;;;;;;;13.80;7.00;;;;;;;20.25;91.07;100576.63;5087002;28;20213;-69
2022/08/27 00:23:44;;;;;;;11.00;6.27;;;;;;;20.23;90.96;100578.69;5090187;28;20210;-69
2022/08/27 00:26:10;;;;;;;11.20;6.40;;;;;;;20.21;91.11;100586.97;5086769;28;20264;-68
2022/08/27 00:28:37;;;;;;;13.67;7.57;;;;;;;20.19;91.13;100575.44;5084851;28;20229;-68
2022/08/27 00:31:05;;;;;;;11.60;6.73;;;;;;;20.18;91.16;100572.91;5083472;28;20302;-68
2022/08/27 00:33:32;;;;;;;16.73;6.80;;;;;;;20.17;91.30;100579.31;5088493;28;20216;-69
2022/08/27 00:35:59;;;;;;;12.40;6.70;;;;;;;20.16;91.49;100573.06;5090905;28;20660;-68
2022/08/27 00:38:26;;;;;;;12.40;6.77;;;;;;;20.14;91.43;100579.63;5090561;28;20225;-69
2022/08/27 00:40:54;;;;;;;11.87;6.40;;;;;;;20.14;91.37;100574.22;5090780;28;20219;-69
2022/08/27 00:43:22;;;;;;;9.60;6.70;;;;;;;20.12;91.39;100577.09;5090558;28;20278;-69
2022/08/27 00:45:49;;;;;;;11.33;6.43;;;;;;;20.11;91.50;100581.63;5090958;28;20305;-68
2022/08/27 00:48:20;;;;;;;12.83;6.27;;;;;;;20.11;91.41;100569.97;5089007;28;20229;-69
2022/08/27 00:50:50;;;;;;;12.50;6.10;;;;;;;20.12;91.67;100585.19;5089234;28;20245;-68
2022/08/27 00:53:21;;;;;;;10.33;6.03;;;;;;;20.12;91.61;100585.19;5090449;28;20194;-69
2022/08/27 00:55:56;;;;;;;14.43;6.60;;;;;;;20.11;91.83;100586.19;5093184;28;20226;-68
2022/08/27 00:58:28;;;;;;;11.30;6.67;;;;;;;20.12;91.65;100587.91;5092377;28;20238;-69
2022/08/27 01:00:56;;;;;;;11.67;6.30;;;;;;;20.11;91.56;100588.91;5091226;28;20199;-69
2022/08/27 01:03:25;;;;;;;16.13;6.53;;;;;;;20.11;91.61;100595.16;5091448;28;20209;-68
2022/08/27 01:05:55;;;;;;;9.50;6.07;;;;;;;20.09;91.66;100590.91;5087622;28;20269;-69
2022/08/27 01:08:24;;;;;;;11.17;6.10;;;;;;;20.09;91.67;100591.75;5090657;28;20220;-68
2022/08/27 01:10:52;;;;;;;13.37;6.30;;;;;;;20.10;91.49;100601.56;5088346;28;20215;-69
2022/08/27 01:13:21;;;;;;;10.47;5.93;;;;;;;20.09;91.70;100596.31;5090111;28;20202;-68
2022/08/27 01:15:48;;;;;;;12.07;6.10;;;;;;;20.07;91.28;100601.03;5090439;28;20303;-68
2022/08/27 01:18:17;;;;;;;16.20;6.20;;;;;;;20.05;91.26;100597.69;5090018;28;20223;-69
2022/08/27 01:20:51;;;;;;;16.27;6.17;;;;;;;20.05;91.50;100600.38;5091791;28;20205;-69
2022/08/27 01:23:24;;;;;;;11.80;6.37;;;;;;;20.04;91.48;100595.97;5089567;28;20605;-70
2022/08/27 01:25:53;;;;;;;13.93;6.23;;;;;;;20.04;91.48;100604.09;5087529;28;20231;-68
2022/08/27 01:28:21;;;;;;;18.50;6.57;;;;;;;20.03;91.60;100605.94;5089694;28;20235;-68
2022/08/27 01:30:48;;;;;;;8.10;5.43;;;;;;;20.05;91.71;100606.63;5089950;28;20216;-68
2022/08/27 01:33:18;;;;;;;13.97;6.23;;;;;;;20.05;91.70;100609.34;5089381;28;20211;-68
2022/08/27 01:35:47;;;;;;;14.00;6.40;;;;;;;20.04;91.83;100612.19;5090012;28;20284;-68
2022/08/27 01:38:15;;;;;;;10.60;5.77;;;;;;;20.04;91.57;100614.91;5088241;28;20221;-68
2022/08/27 01:40:42;;;;;;;10.00;5.83;;;;;;;20.03;91.75;100616.75;5090382;28;20216;-68
2022/08/27 01:43:10;;;;;;;14.57;6.00;;;;;;;20.03;91.58;100613.22;5088047;28;20259;-68
2022/08/27 01:45:39;;;;;;;14.60;6.43;;;;;;;20.01;91.40;100615.22;5091019;28;20307;-68
2022/08/27 01:48:07;;;;;;;20.43;6.07;;;;;;;20.00;91.16;100619.78;5090122;28;20234;-68
2022/08/27 01:50:39;;;;;;;11.47;5.50;;;;;;;19.97;91.20;100622.78;5089458;28;20286;-68
2022/08/27 01:53:09;;;;;;;13.73;5.57;;;;;;;19.96;90.97;100614.84;5087530;28;20212;-69
2022/08/27 01:55:37;;;;;;;16.43;6.27;;;;;;;19.95;90.68;100618.53;5089995;28;20690;-68
2022/08/27 01:58:04;;;;;;;11.33;5.33;;;;;;;19.93;90.71;100620.56;5089271;28;20234;-68
2022/08/27 02:00:36;;;;;;;12.30;5.50;;;;;;;19.92;90.47;100624.25;5089756;28;20205;-68
2022/08/27 02:03:03;;;;;;;11.57;5.80;;;;;;;19.88;90.34;100628.31;5087064;28;20203;-68
2022/08/27 02:05:30;;;;;;;13.20;6.10;;;;;;;19.85;90.00;100624.06;5088311;28;20317;-69
2022/08/27 02:07:56;;;;;;;15.13;5.40;;;;;;;19.85;89.85;100628.63;5086571;28;20230;-68
2022/08/27 02:10:27;;;;;;;9.90;5.50;;;;;;;19.81;89.83;100625.38;5089516;28;20203;-68
2022/08/27 02:12:54;;;;;;;10.97;5.90;;;;;;;19.79;89.83;100627.38;5089021;28;20213;-70
2022/08/27 02:15:22;;;;;;;13.87;5.80;;;;;;;19.79;89.89;100632.78;5089922;28;20676;-69
2022/08/27 02:17:51;;;;;;;10.87;5.53;;;;;;;19.77;89.75;100632.94;5090485;28;20320;-69
2022/08/27 02:20:18;;;;;;;14.23;6.00;;;;;;;19.76;89.82;100622.28;5088164;28;20288;-69
2022/08/27 02:22:45;;;;;;;12.37;5.87;;;;;;;19.74;90.03;100635.09;5090087;28;20213;-70
2022/08/27 02:25:14;;;;;;;12.60;6.33;;;;;;;19.73;89.95;100631.53;5089041;28;20711;-69
2022/08/27 02:27:42;;;;;;;11.63;6.23;;;;;;;19.73;89.90;100642.34;5092062;28;20239;-69
2022/08/27 02:30:11;;;;;;;14.10;7.47;;;;;;;19.72;90.00;100640.66;5096449;28;20566;-69
2022/08/27 02:32:37;;;;;;;14.40;7.50;;;;;;;19.72;89.97;100645.22;5095898;28;20689;-71
2022/08/27 02:35:07;;;;;;;12.10;8.50;;;;;;;19.71;89.84;100638.09;5092410;28;20202;-70
2022/08/27 02:37:35;;;;;;;18.10;8.77;;;;;;;19.69;90.00;100635.59;5089070;28;20262;-70
2022/08/27 02:40:03;;;;;;;14.30;8.63;;;;;;;19.70;90.01;100633.75;5090020;28;20298;-72
2022/08/27 02:42:29;;;;;;;10.57;8.00;;;;;;;19.70;89.84;100642.69;5089301;28;20294;-70
2022/08/27 02:44:55;;;;;;;15.50;9.40;;;;;;;19.70;90.09;100637.28;5109700;22;20244;-70
2022/08/27 02:47:22;;;;;;;15.00;10.13;;;;;;;19.72;89.74;100642.50;5126844;27;20588;-69
2022/08/27 02:49:49;;;;;;;13.90;10.60;;;;;;;19.71;89.55;100635.41;5129606;27;20215;-69
2022/08/27 02:52:16;;;;;;;18.33;9.93;;;;;;;19.71;89.63;100633.56;5130038;27;20626;-69
2022/08/27 02:54:43;;;;;;;16.57;11.17;;;;;;;19.70;89.53;100631.03;5126764;27;20231;-69
2022/08/27 02:57:11;;;;;;;17.27;12.43;;;;;;;19.70;89.62;100633.75;5110643;27;20200;-69
2022/08/27 02:59:37;;;;;;;16.80;13.17;;;;;;;19.68;89.57;100633.03;5108038;27;20522;-70
2022/08/27 03:02:04;;;;;;;17.67;12.83;;;;;;;19.64;89.62;100626.25;5108363;28;20693;-70
2022/08/27 03:04:31;;;;;;;15.87;11.30;;;;;;;19.61;89.60;100631.97;5108768;28;20207;-69
2022/08/27 03:06:58;;;;;;;19.37;10.33;;;;;;;19.58;89.91;100632.25;5102435;27;20931;-70
2022/08/27 03:09:25;;;;;;;15.80;10.70;;;;;;;19.57;89.82;100627.88;5113297;27;20842;-70
2022/08/27 03:11:52;;;;;;;16.77;10.33;;;;;;;19.55;90.06;100630.72;5100885;27;20562;-70
2022/08/27 03:14:19;;;;;;;14.20;9.40;;;;;;;19.52;90.04;100619.41;5105580;27;20210;-69
2022/08/27 03:16:45;;;;;;;16.80;8.90;;;;;;;19.52;89.99;100627.50;5106976;27;20327;-69
2022/08/27 03:19:11;;;;;;;12.07;8.50;;;;;;;19.51;89.92;100625.81;5109140;27;20210;-69
2022/08/27 03:21:37;;;;;;;14.07;7.73;;;;;;;19.49;90.15;100619.66;5110335;27;20216;-69
2022/08/27 03:24:04;;;;;;;10.47;7.50;;;;;;;19.50;90.29;100619.56;5108526;27;20198;-70
2022/08/27 03:26:33;;;;;;;12.07;8.00;;;;;;;19.49;90.07;100616.97;5115830;27;20225;-70
2022/08/27 03:29:00;;;;;;;11.77;8.47;;;;;;;19.48;90.11;100618.81;5116322;27;20213;-70
2022/08/27 03:31:28;;;;;;;14.67;9.40;;;;;;;19.47;90.09;100622.53;5108939;28;20205;-69
2022/08/27 03:33:56;;;;;;;11.37;7.57;;;;;;;19.46;90.34;100620.81;5110856;28;20202;-69
2022/08/27 03:36:24;;;;;;;12.20;8.83;;;;;;;19.47;90.52;100624.38;5117185;27;20227;-70
2022/08/27 03:38:51;;;;;;;10.90;8.70;;;;;;;19.48;90.69;100626.06;5116618;27;20585;-70
2022/08/27 03:41:19;;;;;;;20.23;9.60;;;;;;;19.50;90.92;100624.09;5111240;28;20209;-70
2022/08/27 03:43:47;;;;;;;13.17;8.90;;;;;;;19.50;90.78;100629.50;5119489;28;20705;-69
2022/08/27 03:46:13;;;;;;;17.37;8.70;;;;;;;19.48;90.99;100621.53;5116950;27;20234;-68
2022/08/27 03:48:40;;;;;;;19.20;10.00;;;;;;;19.47;90.75;100618.97;5112109;28;20216;-69
2022/08/27 03:51:08;;;;;;;13.53;9.70;;;;;;;19.47;90.61;100618.97;5110026;28;20229;-69
2022/08/27 03:53:37;;;;;;;15.37;9.20;;;;;;;19.45;90.53;100621.81;5104351;28;20209;-69
2022/08/27 03:56:05;;;;;;;13.53;8.57;;;;;;;19.42;90.61;100620.28;5113887;28;20220;-69
2022/08/27 03:58:32;;;;;;;14.30;9.50;;;;;;;19.39;90.39;100617.88;5115735;28;20272;-69
2022/08/27 04:01:00;;;;;;;16.10;9.33;;;;;;;19.40;90.29;100621.44;5111071;28;20201;-69
2022/08/27 04:03:27;;;;;;;16.10;9.77;;;;;;;19.38;90.30;100621.59;5120298;28;20587;-69
2022/08/27 04:05:54;;;;;;;14.13;9.10;;;;;;;19.37;90.45;100621.75;5112481;28;20236;-69
2022/08/27 04:08:21;;;;;;;14.47;9.47;;;;;;;19.36;90.54;100623.59;5118123;27;20201;-69
2022/08/27 04:10:48;;;;;;;14.60;9.43;;;;;;;19.36;90.42;100618.19;5114157;27;20705;-69
2022/08/27 04:13:16;;;;;;;12.60;9.20;;;;;;;19.36;90.26;100611.94;5105530;27;20209;-69
2022/08/27 04:15:44;;;;;;;12.30;8.27;;;;;;;19.36;90.14;100622.75;5112705;27;20631;-70
2022/08/27 04:18:15;;;;;;;15.80;8.30;;;;;;;19.33;89.93;100623.94;5109943;27;20643;-69
2022/08/27 04:20:41;;;;;;;12.93;8.50;;;;;;;19.31;89.95;100625.06;5110748;27;20202;-69
2022/08/27 04:23:08;;;;;;;13.80;8.23;;;;;;;19.31;89.90;100622.38;5115364;27;20218;-69
2022/08/27 04:25:38;;;;;;;10.63;7.73;;;;;;;19.29;90.01;100618.97;5118636;27;20230;-69
2022/08/27 04:28:05;;;;;;;14.63;7.47;;;;;;;19.28;89.88;100623.53;5114040;27;20288;-69
2022/08/27 04:30:31;;;;;;;12.87;7.60;;;;;;;19.28;89.73;100619.97;5116305;27;20705;-69
2022/08/27 04:32:58;;;;;;;13.03;7.00;;;;;;;19.27;89.63;100619.13;5121954;27;20201;-70
2022/08/27 04:35:26;;;;;;;12.93;7.17;;;;;;;19.25;89.63;100621.13;5115558;27;20230;-70
2022/08/27 04:37:52;;;;;;;11.70;7.00;;;;;;;19.26;89.74;100633.63;5115267;27;20198;-69
2022/08/27 04:40:19;;;;;;;13.63;6.40;;;;;;;19.27;89.43;100631.78;5119178;27;20213;-69
2022/08/27 04:42:45;;;;;;;16.20;6.37;;;;;;;19.24;89.28;100635.63;5119096;27;20209;-69
2022/08/27 04:45:12;;;;;;;10.73;6.00;;;;;;;19.23;88.89;100633.09;5117380;27;20780;-69
2022/08/27 04:47:38;;;;;;;10.93;5.87;;;;;;;19.21;88.88;100632.38;5116864;27;20221;-70
2022/08/27 04:50:06;;;;;;;11.03;5.37;;;;;;;19.20;88.86;100634.22;5114330;27;20202;-69
2022/08/27 04:52:33;;;;;;;12.23;5.33;;;;;;;19.18;88.64;100641.63;5117910;27;20727;-69
2022/08/27 04:55:00;;;;;;;12.83;5.07;;;;;;;19.15;88.33;100647.38;5119090;27;20229;-70
2022/08/27 04:57:26;;;;;;;13.40;5.10;;;;;;;19.14;88.22;100653.75;5123764;27;20675;-70
2022/08/27 04:59:53;;;;;;;8.73;4.20;;;;;;;19.13;88.21;100657.47;5114174;27;20678;-69
2022/08/27 05:02:20;;;;;;;12.57;5.33;;;;;;;19.12;88.00;100649.50;5119884;27;20585;-69
2022/08/27 05:04:46;;;;;;;14.27;4.53;;;;;;;19.10;88.29;100649.66;5120110;27;20248;-69
2022/08/27 05:07:13;;;;;;;8.43;4.13;;;;;;;19.10;88.00;100651.50;5119275;27;20228;-69
2022/08/27 05:09:40;;;;;;;10.10;4.40;;;;;;;19.08;88.15;100657.06;5122105;27;20203;-69
2022/08/27 05:12:10;;;;;;;10.20;4.30;;;;;;;19.06;88.04;100650.97;5115526;27;20198;-70
2022/08/27 05:14:37;;;;;;;15.03;5.57;;;;;;;19.05;88.18;100651.97;5105875;28;20235;-69
2022/08/27 05:17:03;;;;;;;9.63;4.77;;;;;;;19.04;88.16;100655.66;5105474;28;20210;-69
2022/08/27 05:19:30;;;;;;;17.27;4.73;;;;;;;19.03;88.31;100645.84;5108650;28;20207;-69
2022/08/27 05:21:57;;;;;;;7.60;3.97;;;;;;;19.02;88.30;100654.94;5110398;27;20211;-69
2022/08/27 05:24:23;;;;;;;7.63;4.30;;;;;;;19.00;88.33;100651.56;5108610;28;20259;-69
2022/08/27 05:26:51;;;;;;;10.07;4.03;;;;;;;18.99;88.47;100645.31;5108386;28;20724;-69
2022/08/27 05:29:18;;;;;;;9.90;4.17;;;;;;;18.99;88.70;100649.84;5112003;27;20229;-69
2022/08/27 05:31:45;;;;;;;10.30;4.77;;;;;;;18.97;88.18;100650.03;5110763;27;20210;-70
2022/08/27 05:34:12;;;;;;;8.77;4.13;;;;;;;18.96;88.36;100658.28;5115393;27;20294;-69
2022/08/27 05:36:39;;;;;;;10.53;4.03;;;;;;;18.96;88.33;100652.88;5109567;27;20217;-69
2022/08/27 05:39:07;;;;;;;12.23;4.47;;;;;;;18.96;88.30;100650.19;5110041;28;20210;-70
2022/08/27 05:41:34;;;;;;;11.87;3.90;;;;;;;18.96;87.99;100655.56;5125672;27;20297;-69
2022/08/27 05:44:04;;;;;;;7.73;4.10;;;;;;;18.94;88.06;100646.78;5115432;27;20210;-69
2022/08/27 05:46:31;;;;;;;9.40;4.53;;;;;;;18.93;88.08;100648.63;5115344;27;20623;-70
2022/08/27 05:49:00;;;;;;;19.23;5.53;;;;;;;18.92;88.05;100646.94;5104648;27;20721;-69
2022/08/27 05:51:29;;;;;;;11.17;4.80;;;;;;;18.91;88.21;100647.94;5118836;27;20208;-69
2022/08/27 05:53:58;;;;;;;12.30;5.33;;;;;;;18.92;88.22;100643.38;5115600;27;20206;-69
2022/08/27 05:56:27;;;;;;;13.20;4.80;;;;;;;18.91;88.03;100645.22;5111829;27;20733;-69
2022/08/27 06:01:42;;;;;;;13.00;5.70;;;;;;;18.91;88.01;100647.94;5112509;27;20205;-69
2022/08/27 06:04:09;;;;;;;8.53;5.27;;;;;;;18.91;88.00;100639.81;5113625;27;20195;-69
2022/08/27 06:06:37;;;;;;;13.00;5.77;;;;;;;18.90;88.01;100646.22;5115710;27;20229;-69
2022/08/27 06:09:05;;;;;;;11.60;6.03;;;;;;;18.91;87.99;100647.06;5111892;27;20677;-70
2022/08/27 06:11:32;;;;;;;14.23;6.20;;;;;;;18.92;87.98;100651.47;5121350;27;20221;-69
2022/08/27 06:13:58;;;;;;;17.23;5.90;;;;;;;18.93;87.97;100650.47;5116946;27;20215;-69
2022/08/27 06:16:25;;;;;;;12.53;5.97;;;;;;;18.93;87.72;100654.03;5116131;27;20222;-69
2022/08/27 06:18:55;;;;;;;16.70;5.90;;;;;;;18.93;87.81;100661.28;5112001;27;20198;-69
2022/08/27 06:21:22;;;;;;;11.50;5.23;;;;;;;18.93;87.67;100659.41;5113126;27;20255;-69
2022/08/27 06:23:48;;;;;;;13.97;5.47;;;;;;;18.93;87.67;100655.88;5110881;27;20214;-69
2022/08/27 06:26:18;;;;;;;16.23;6.10;;;;;;;18.92;87.81;100662.28;5106899;27;20605;-69
2022/08/27 06:28:44;;;;;;;11.77;5.70;;;;;;;18.93;87.60;100654.03;5118691;27;20216;-69
2022/08/27 06:31:14;;;;;;;11.10;5.47;;;;;;;18.94;87.67;100655.72;5115089;27;20211;-69
2022/08/27 06:33:42;;;;;;;13.67;5.70;;;;;;;18.95;87.69;100657.44;5123017;27;20294;-69
2022/08/27 06:36:12;;;;;;;15.83;5.83;;;;;;;18.95;87.49;100656.56;5111043;27;20220;-68
2022/08/27 06:38:39;;;;;;;12.47;5.57;;;;;;;18.95;87.70;100657.44;5102853;27;20213;-70
2022/08/27 06:41:07;;;;;;;13.27;5.63;;;;;;;18.97;87.55;100663.53;5115646;27;20221;-66
2022/08/27 06:43:36;;;;;;;13.03;5.87;;;;;;;18.98;87.47;100665.22;5110297;27;20206;-68
2022/08/27 06:46:04;;;;;;;10.87;5.43;;;;;;;19.00;87.26;100673.16;5109694;27;20854;-69
2022/08/27 06:48:30;;;;;;;12.97;5.30;;;;;;;18.99;87.09;100666.91;5105883;27;20222;-68
2022/08/27 06:50:57;;;;;;;13.20;5.30;;;;;;;19.01;87.23;100662.19;5111940;27;20204;-68
2022/08/27 06:53:25;;;;;;;10.73;4.77;;;;;;;19.04;87.24;100666.44;5110939;27;20205;-69
2022/08/27 06:55:51;;;;;;;11.73;5.13;;;;;;;19.06;87.22;100667.16;5118247;27;20226;-69
2022/08/27 06:58:19;;;;;;;9.77;3.93;;;;;;;19.08;87.11;100671.41;5109684;27;20205;-69
2022/08/27 07:00:45;;;;;;;5.13;3.93;;;;;;;19.11;87.41;100675.66;5115853;27;20214;-70
2022/08/27 07:03:12;;;;;;;8.33;3.80;;;;;;;19.13;86.98;100670.97;5116237;27;20215;-68
2022/08/27 07:05:40;;;;;;;10.50;4.23;;;;;;;19.15;86.90;100678.91;5115718;27;20302;-69
2022/08/27 07:08:07;;;;;;;7.53;4.37;;;;;;;19.16;86.78;100669.81;5112213;27;20220;-69
2022/08/27 07:10:36;;;;;;;9.93;3.80;;;;;;;19.15;86.58;100677.06;5109360;27;20220;-69
2022/08/27 07:13:03;;;;;;;8.67;3.70;;;;;;;19.15;86.18;100671.66;5107398;27;20197;-69
2022/08/27 07:15:29;;;;;;;9.30;4.20;;;;;;;19.16;86.07;100681.47;5116520;27;20224;-69
2022/08/27 07:17:56;;;;;;;8.53;4.20;;;;;;;19.17;85.89;100682.31;5110835;27;20209;-69
2022/08/27 07:20:22;;;;;;;8.03;3.80;;;;;;;19.15;85.58;100674.34;5109206;27;20806;-69
2022/08/27 07:22:50;;;;;;;8.67;3.63;;;;;;;19.14;85.67;100678.06;5106510;27;20201;-71
2022/08/27 07:25:19;;;;;;;11.77;3.97;;;;;;;19.15;85.56;100678.91;5114436;27;20855;-70
2022/08/27 07:27:47;;;;;;;10.17;3.90;;;;;;;19.16;85.50;100688.72;5115489;27;20237;-70
2022/08/27 07:30:15;;;;;;;6.60;3.43;;;;;;;19.17;85.39;100693.09;5106400;28;20203;-69
2022/08/27 07:32:42;;;;;;;10.03;3.13;;;;;;;19.18;85.55;100689.38;5113511;28;20726;-70
2022/08/27 07:35:09;;;;;;;8.40;3.20;;;;;;;19.19;85.28;100683.81;5114062;27;20225;-71
2022/08/27 07:37:36;;;;;;;8.90;3.53;;;;;;;19.20;85.43;100690.06;5117220;28;20221;-70
2022/08/27 07:40:04;;;;;;;7.13;2.90;;;;;;;19.24;85.18;100691.47;5113953;28;20204;-71
2022/08/27 07:45:17;;;;;;;8.13;3.03;;;;;;;19.26;84.87;100693.03;5112807;27;20233;-70
2022/08/27 07:47:43;;;;;;;7.50;3.00;;;;;;;19.28;84.77;100691.03;5122265;27;20648;-70
2022/08/27 07:50:10;;;;;;;6.57;2.87;;;;;;;19.29;84.48;100681.94;5108953;27;20210;-71
2022/08/27 07:52:36;;;;;;;11.17;3.00;;;;;;;19.31;84.39;100687.19;5119439;27;20583;-71
2022/08/27 07:55:03;;;;;;;6.83;3.33;;;;;;;19.33;84.25;100693.28;5121538;27;20220;-70
2022/08/27 07:57:31;;;;;;;10.60;3.63;;;;;;;19.35;84.13;100697.50;5122119;27;20205;-69
2022/08/27 07:59:58;;;;;;;7.90;2.87;;;;;;;19.35;84.00;100686.69;5111984;27;20202;-71
2022/08/27 08:02:26;;;;;;;9.70;2.97;;;;;;;19.36;83.64;100687.56;5109851;27;20264;-70
2022/08/27 08:04:53;;;;;;;9.63;2.83;;;;;;;19.38;83.82;100688.25;5110413;27;20254;-70
2022/08/27 08:07:19;;;;;;;9.13;3.50;;;;;;;19.42;83.74;100693.22;5109602;27;20232;-70
2022/08/27 08:09:46;;;;;;;5.37;3.00;;;;;;;19.46;83.67;100687.50;5119354;27;20201;-70
2022/08/27 08:12:13;;;;;;;7.93;3.00;;;;;;;19.50;83.66;100700.59;5110534;28;20579;-70
2022/08/27 08:14:39;;;;;;;5.17;2.70;;;;;;;19.55;83.31;100702.81;5114185;27;20290;-70
2022/08/27 08:17:06;;;;;;;10.00;3.37;;;;;;;19.56;82.83;100704.50;5120202;27;20278;-71
2022/08/27 08:19:34;;;;;;;10.40;3.43;;;;;;;19.59;82.86;100705.06;5112495;27;20266;-71
2022/08/27 08:22:00;;;;;;;8.03;3.50;;;;;;;19.62;82.71;100709.31;5108869;28;20209;-71
2022/08/27 08:24:27;;;;;;;9.10;3.80;;;;;;;19.65;82.68;100704.44;5110077;28;20221;-68
2022/08/27 08:26:53;;;;;;;6.77;3.27;;;;;;;19.68;82.26;100709.56;5110280;27;20211;-71
2022/08/27 08:29:20;;;;;;;10.40;3.57;;;;;;;19.73;82.33;100711.75;5111941;27;20207;-71
2022/08/27 08:31:47;;;;;;;10.13;3.57;;;;;;;19.74;81.65;100713.47;5115322;27;20199;-68
2022/08/27 08:34:14;;;;;;;8.87;3.27;;;;;;;19.75;81.65;100715.16;5113983;27;20203;-70
2022/08/27 08:36:42;;;;;;;7.53;3.10;;;;;;;19.76;81.18;100724.97;5113942;27;20266;-70
2022/08/27 08:39:09;;;;;;;11.27;3.00;;;;;;;19.78;81.24;100731.06;5116413;27;20200;-70
2022/08/27 08:41:40;;;;;;;7.13;3.00;;;;;;;19.79;80.93;100726.53;5118655;27;20200;-70
2022/08/27 08:44:16;;;;;;;9.30;3.33;;;;;;;19.77;80.85;100735.63;5115038;27;20204;-71
2022/08/27 08:46:48;;;;;;;6.60;2.90;;;;;;;19.76;80.54;100728.53;5135708;22;20237;-72
2022/08/27 08:49:29;;;;;;;7.93;3.20;;;;;;;19.76;80.11;100735.78;5126408;27;20201;-73
2022/08/27 08:52:07;;;;;;;7.73;3.20;;;;;;;19.76;80.67;100733.09;5109952;27;20206;-72
2022/08/27 08:54:34;;;;;;;9.03;3.17;;;;;;;19.75;80.51;100732.22;5111526;27;20218;-72
2022/08/27 08:57:06;;;;;;;9.90;3.40;;;;;;;19.78;80.09;100728.38;5096554;28;20213;-72
2022/08/27 08:59:36;;;;;;;9.17;3.10;;;;;;;19.79;80.39;100731.94;5091875;28;20709;-72
2022/08/27 09:02:05;;;;;;;9.03;3.20;;;;;;;19.80;80.18;100734.47;5089644;28;20210;-72
2022/08/27 09:04:31;;;;;;;6.10;3.00;;;;;;;19.80;80.20;100739.88;5106173;28;20208;-72
2022/08/27 09:07:03;;;;;;;7.00;3.87;;;;;;;19.82;80.15;100729.78;5096607;28;20228;-72
2022/08/27 09:09:37;;;;;;;9.63;3.30;;;;;;;19.85;80.26;100734.88;5096946;28;20286;-72
2022/08/27 09:12:14;;;;;;;4.50;3.13;;;;;;;19.88;80.13;100739.13;5094478;28;20202;-70
2022/08/27 09:14:46;;;;;;;6.67;3.53;;;;;;;19.88;80.04;100739.97;5090893;28;20304;-72
2022/08/27 09:17:13;;;;;;;6.57;3.67;;;;;;;19.88;80.13;100742.69;5098545;28;20203;-72
2022/08/27 09:19:41;;;;;;;7.53;3.60;;;;;;;19.91;79.99;100736.94;5090814;28;20239;-72
2022/08/27 09:22:17;;;;;;;6.87;3.63;;;;;;;19.94;80.28;100735.78;5084723;28;20665;-73
2022/08/27 09:24:55;;;;;;;7.43;3.87;;;;;;;19.95;80.08;100741.03;5090575;28;20200;-73
2022/08/27 09:27:22;;;;;;;7.90;3.80;;;;;;;19.96;79.78;100741.88;5090963;28;20215;-73
2022/08/27 09:29:52;;;;;;;7.30;3.23;;;;;;;19.95;79.61;100751.00;5094495;28;20198;-73
2022/08/27 09:32:23;;;;;;;8.97;3.40;;;;;;;19.94;79.45;100750.16;5094886;28;20206;-73
2022/08/27 09:34:50;;;;;;;7.50;3.63;;;;;;;19.93;79.13;100743.03;5093150;28;20215;-72
2022/08/27 09:37:20;;;;;;;6.00;2.73;;;;;;;19.94;79.11;100743.88;5091423;28;20280;-72
2022/08/27 09:39:51;;;;;;;8.10;2.83;;;;;;;19.92;78.65;100749.44;5090969;28;20310;-70
2022/08/27 09:42:32;;;;;;;11.07;3.90;;;;;;;19.93;78.68;100744.88;5089473;28;20257;-71
2022/08/27 09:44:58;;;;;;;9.33;3.13;;;;;;;19.94;78.93;100744.75;5094694;28;20239;-72
2022/08/27 09:47:25;;;;;;;9.27;2.90;;;;;;;19.96;78.89;100740.03;5093671;28;20707;-73
2022/08/27 09:50:07;;;;;;;7.23;2.83;;;;;;;19.96;78.93;100750.84;5097381;28;20214;-70
2022/08/27 09:52:45;;;;;;;9.87;3.40;;;;;;;19.99;78.91;100739.72;5095697;28;20659;-73
2022/08/27 09:55:11;;;;;;;12.83;3.57;;;;;;;20.00;78.92;100741.44;5095566;28;20305;-70
2022/08/27 09:57:41;;;;;;;10.20;3.80;;;;;;;20.00;78.83;100741.44;5096956;28;20194;-74
2022/08/27 10:00:14;;;;;;;10.83;3.70;;;;;;;20.02;78.77;100742.13;5090187;28;20697;-73
2022/08/27 10:02:51;;;;;;;8.00;3.57;;;;;;;20.06;78.71;100742.66;5088623;28;20220;-72
2022/08/27 10:05:26;;;;;;;7.10;3.40;;;;;;;20.07;78.62;100742.47;5086388;28;20247;-72
2022/08/27 10:08:00;;;;;;;7.97;3.87;;;;;;;20.10;78.82;100744.88;5076623;28;20228;-73
2022/08/27 10:10:38;;;;;;;9.13;3.20;;;;;;;20.14;78.58;100740.00;5089135;28;20212;-72
2022/08/27 10:13:09;;;;;;;7.40;3.43;;;;;;;20.19;78.47;100743.09;5086705;28;20202;-71
2022/08/27 10:15:39;;;;;;;9.13;3.47;;;;;;;20.27;78.36;100740.44;5092046;28;20228;-72
2022/08/27 10:18:10;;;;;;;7.90;3.43;;;;;;;20.36;78.56;100733.25;5087864;28;20204;-73
2022/08/27 10:20:43;;;;;;;7.30;3.37;;;;;;;20.44;77.97;100744.16;5088724;28;20254;-72
2022/08/27 10:23:25;;;;;;;12.47;3.90;;;;;;;20.48;77.69;100742.84;5083972;28;20207;-72
2022/08/27 10:25:59;;;;;;;7.90;3.47;;;;;;;20.55;77.19;100743.91;5090464;28;20307;-72
2022/08/27 10:28:52;;;;;;;7.93;3.40;;;;;;;20.63;77.40;100738.53;5090191;28;20222;-71
2022/08/27 10:31:31;;;;;;;10.77;3.40;;;;;;;20.70;76.69;100739.59;5091777;28;20214;-71
2022/08/27 10:34:20;;;;;;;7.40;3.27;;;;;;;20.73;76.27;100735.72;5089083;28;20209;-71
2022/08/27 10:36:58;;;;;;;7.57;3.63;;;;;;;20.76;75.83;100733.56;5085438;28;20231;-73
2022/08/27 10:39:42;;;;;;;7.10;3.27;;;;;;;20.80;75.22;100740.31;5088365;28;20198;-72
2022/08/27 10:42:16;;;;;;;7.32;3.25;;;;;;;20.87;75.10;100728.88;5089449;28;20213;-72
2022/08/27 10:44:55;;;;;;;6.97;3.00;;;;;;;20.93;74.96;100725.50;5090396;28;20606;-72
2022/08/27 10:47:42;;;;;;;9.00;3.40;;;;;;;20.98;74.76;100733.97;5088937;28;20581;-72
2022/08/27 10:50:17;;;;;;;9.95;3.50;;;;;;;21.07;74.58;100728.44;5090034;28;20203;-72
2022/08/27 10:52:49;;;;;;;8.77;3.15;;;;;;;21.15;74.33;100728.47;5092269;28;20227;-73
2022/08/27 10:55:21;;;;;;;7.45;3.15;;;;;;;21.23;74.15;100730.41;5094107;28;20219;-72
2022/08/27 10:58:06;;;;;;;6.63;3.45;;;;;;;21.30;73.74;100730.59;5091773;28;20207;-71
2022/08/27 11:00:41;;;;;;;6.97;3.80;;;;;;;21.35;73.31;100729.06;5094123;28;20545;-72
2022/08/27 11:03:12;;;;;;;7.38;3.00;;;;;;;21.38;72.78;100728.75;5094077;28;20218;-72
2022/08/27 11:05:44;;;;;;;7.60;3.50;;;;;;;21.42;72.46;100729.28;5091328;28;20223;-72
2022/08/27 11:08:16;;;;;;;8.40;3.13;;;;;;;21.46;72.04;100731.50;5087642;28;20222;-73
2022/08/27 11:10:47;;;;;;;5.75;3.25;;;;;;;21.51;71.92;100732.84;5088506;28;20203;-73
2022/08/27 11:13:19;;;;;;;7.10;3.22;;;;;;;21.56;71.77;100725.06;5087187;28;20611;-73
2022/08/27 11:15:49;;;;;;;6.65;3.28;;;;;;;21.61;71.50;100733.56;5091196;28;20224;-73
2022/08/27 11:18:20;;;;;;;7.47;3.33;;;;;;;21.61;70.63;100741.69;5094596;28;20203;-72
2022/08/27 11:20:53;;;;;;;8.07;3.55;;;;;;;21.59;70.50;100739.16;5088956;28;20674;-73
2022/08/27 11:23:25;;;;;;;11.18;3.72;;;;;;;21.61;70.78;100739.84;5094056;28;20253;-73
2022/08/27 11:25:55;;;;;;;6.82;3.28;;;;;;;21.64;70.78;100742.22;5093240;28;20288;-72
2022/08/27 11:28:30;;;;;;;8.70;3.30;;;;;;;21.66;70.42;100739.34;5090338;28;20227;-73
2022/08/27 11:31:03;;;;;;;10.43;3.00;;;;;;;21.67;70.43;100743.75;5094524;28;20247;-71
2022/08/27 11:33:39;;;;;;;9.02;3.13;;;;;;;21.71;70.38;100739.66;5086013;28;20674;-70